Time;durP1;ratioP1;P1;durP2;ratioP2;P2;SDS_P1;SDS_P2;PMS_P1;PMS_P2;Temp;Humidity;BMP_temperature;BMP_pressure;BME280_temperature;BME280_humidity;BME280_pressure;Samples;Min_cycle;Max_cycle;Signal;HPM_P1;HPM_P2
2022/11/05 00:10:53;;;;;;;3.05;1.38;;;;;;;-140.72;100.00;52997.63;5052004;28;20094;-71
2022/11/05 00:19:05;;;;;;;2.10;1.15;;;;;;;-140.72;100.00;53034.16;5051108;28;20079;-71
2022/11/05 00:26:59;;;;;;;3.85;1.75;;;;;;;-140.72;100.00;53026.03;5050817;28;20059;-70
2022/11/05 00:29:24;;;;;;;3.28;1.40;;;;;;;-140.72;100.00;53019.94;5051996;28;20727;-71
2022/11/05 00:31:49;;;;;;;2.05;1.40;;;;;;;-140.72;100.00;53080.81;5050974;28;20112;-71
2022/11/05 00:34:15;;;;;;;3.40;1.98;;;;;;;-140.72;100.00;53017.91;5052084;28;20049;-72
2022/11/05 00:36:40;;;;;;;2.22;1.48;;;;;;;-140.72;100.00;53003.69;5051647;28;20107;-71
2022/11/05 00:39:06;;;;;;;2.80;2.20;;;;;;;-140.72;100.00;53003.69;5051428;28;20530;-74
2022/11/05 00:41:31;;;;;;;3.45;1.58;;;;;;;-140.72;100.00;52993.56;5051738;28;20442;-72
2022/11/05 00:46:40;;;;;;;3.03;1.35;;;;;;;-140.72;100.00;53056.47;5051029;28;20040;-71
2022/11/05 00:52:54;;;;;;;7.50;2.00;;;;;;;-140.72;100.00;53038.19;5050267;28;20489;-71
2022/11/05 00:54:35;;;;;;;3.20;1.90;;;;;;;-140.72;100.00;53030.09;5050530;28;20130;-71
2022/11/05 00:57:00;;;;;;;6.93;2.10;;;;;;;-140.72;100.00;53044.28;5051201;28;20033;-72
2022/11/05 00:59:25;;;;;;;3.90;2.40;;;;;;;-140.72;100.00;53044.28;5051428;28;20079;-71
2022/11/05 01:01:51;;;;;;;5.28;2.15;;;;;;;-140.72;100.00;53054.44;5050156;28;20021;-71
2022/11/05 01:04:16;;;;;;;2.53;1.58;;;;;;;-140.72;100.00;53044.28;5051376;28;20020;-75
2022/11/05 01:06:41;;;;;;;2.97;1.50;;;;;;;-140.72;100.00;53024.00;5051029;28;20044;-74
2022/11/05 01:09:07;;;;;;;2.05;1.52;;;;;;;-140.72;100.00;53001.66;5050715;28;20075;-71
2022/11/05 01:11:36;;;;;;;9.27;1.90;;;;;;;-140.72;100.00;53005.72;5051428;28;20021;-70
2022/11/05 01:14:01;;;;;;;3.75;1.60;;;;;;;-140.72;100.00;53003.69;5049738;28;20048;-74
2022/11/05 01:16:26;;;;;;;2.50;1.58;;;;;;;-140.72;100.00;53040.22;5051352;28;20025;-74
2022/11/05 01:18:55;;;;;;;2.42;1.42;;;;;;;-140.72;100.00;53040.22;5047253;28;20573;-73
2022/11/05 01:21:24;;;;;;;2.88;1.88;;;;;;;-140.72;100.00;53048.34;5027550;28;20021;-71
2022/11/05 01:23:49;;;;;;;2.70;1.50;;;;;;;-140.72;100.00;53062.56;5049576;28;20029;-70
2022/11/05 01:26:14;;;;;;;1.80;1.23;;;;;;;-140.72;100.00;52989.50;5050614;28;20557;-71
2022/11/05 01:28:40;;;;;;;3.30;1.65;;;;;;;-140.72;100.00;53024.00;5049342;28;20078;-70
2022/11/05 01:31:05;;;;;;;4.43;1.92;;;;;;;-140.72;100.00;53044.28;5050830;28;20025;-71
2022/11/05 01:33:31;;;;;;;3.78;1.63;;;;;;;-140.72;100.00;53038.19;5051634;28;20370;-69
2022/11/05 01:35:56;;;;;;;3.08;1.73;;;;;;;-140.72;100.00;53058.50;5049078;28;20029;-72
2022/11/05 01:38:22;;;;;;;4.47;1.90;;;;;;;-140.72;100.00;52991.53;5050884;28;20252;-71
2022/11/05 01:40:47;;;;;;;4.90;1.73;;;;;;;-140.72;100.00;53044.28;5047438;28;20029;-74
2022/11/05 01:43:16;;;;;;;1.77;1.02;;;;;;;-140.72;100.00;53028.06;5050274;28;20021;-70
2022/11/05 01:45:42;;;;;;;3.83;1.52;;;;;;;-140.72;100.00;53032.13;5050258;28;20052;-70
2022/11/05 01:48:15;;;;;;;2.63;1.38;;;;;;;-140.72;100.00;53024.00;5050433;28;20557;-71
2022/11/05 01:50:59;;;;;;;2.95;1.83;;;;;;;-140.72;100.00;53024.00;5049528;28;20032;-75
2022/11/05 01:53:45;;;;;;;2.83;1.88;;;;;;;-140.72;100.00;53064.59;5044252;28;20026;-70
2022/11/05 01:56:17;;;;;;;3.55;2.17;;;;;;;-140.72;100.00;53084.88;5047794;28;20084;-70
2022/11/05 01:58:55;;;;;;;4.90;1.63;;;;;;;-140.72;100.00;53044.28;5049636;28;20366;-73
2022/11/05 02:01:21;;;;;;;3.88;1.73;;;;;;;-140.72;100.00;53082.84;5048358;28;20037;-71
2022/11/05 02:03:49;;;;;;;4.00;2.05;;;;;;;-140.72;100.00;53019.94;5043427;28;20024;-71
2022/11/05 02:06:18;;;;;;;2.35;1.88;;;;;;;-140.72;100.00;53058.50;5050042;28;20036;-71
2022/11/05 02:09:06;;;;;;;1.50;1.20;;;;;;;-140.72;100.00;53042.25;5050138;28;20463;-71
2022/11/05 02:11:32;;;;;;;3.20;1.70;;;;;;;-140.72;100.00;53056.47;5049494;28;20100;-70
2022/11/05 02:13:57;;;;;;;2.85;1.83;;;;;;;-140.72;100.00;53060.53;5050093;28;20044;-72
2022/11/05 02:16:42;;;;;;;1.95;1.30;;;;;;;-140.72;100.00;53017.91;5050397;28;20025;-72
2022/11/05 02:19:35;;;;;;;2.47;1.52;;;;;;;-140.72;100.00;53062.56;5049481;28;20033;-71
2022/11/05 02:22:24;;;;;;;2.97;1.42;;;;;;;-140.72;100.00;53017.91;5038852;28;20104;-71
2022/11/05 02:25:05;;;;;;;1.27;1.08;;;;;;;-140.72;100.00;53048.34;5048583;28;20470;-72
2022/11/05 02:27:33;;;;;;;8.75;1.73;;;;;;;-140.72;100.00;52979.34;5049964;28;20043;-71
2022/11/05 02:30:16;;;;;;;2.58;1.63;;;;;;;-140.72;100.00;53015.88;5049497;28;20040;-73
2022/11/05 02:33:03;;;;;;;2.88;1.40;;;;;;;-140.72;100.00;52987.47;5048663;28;20189;-70
2022/11/05 02:36:01;;;;;;;2.17;0.90;;;;;;;-140.72;100.00;52967.16;5050158;28;20075;-71
2022/11/05 02:38:47;;;;;;;4.82;1.55;;;;;;;-140.72;100.00;52983.41;5010490;28;20400;-71
2022/11/05 02:41:24;;;;;;;1.55;0.98;;;;;;;-140.72;100.00;53001.66;5049850;28;20033;-70
2022/11/05 02:44:01;;;;;;;4.88;1.10;;;;;;;-140.72;100.00;52977.31;5038223;28;20033;-70
2022/11/05 02:46:39;;;;;;;2.13;1.02;;;;;;;-140.72;100.00;53040.22;5049222;28;20024;-73
2022/11/05 02:49:32;;;;;;;0.98;0.80;;;;;;;-140.72;100.00;52987.47;5049697;28;20059;-71
2022/11/05 02:52:03;;;;;;;2.00;1.00;;;;;;;-140.72;100.00;53001.66;5021546;28;20444;-71
2022/11/05 02:54:40;;;;;;;1.42;0.85;;;;;;;-140.72;100.00;53015.88;5049102;28;20029;-70
2022/11/05 02:57:06;;;;;;;1.55;1.30;;;;;;;-140.72;100.00;52989.50;5049952;28;20074;-71
2022/11/05 02:59:31;;;;;;;3.33;1.08;;;;;;;-140.72;100.00;53021.97;5049225;28;20021;-71
2022/11/05 03:01:59;;;;;;;3.97;0.90;;;;;;;-140.72;100.00;52993.56;5049564;28;20488;-70
2022/11/05 03:04:28;;;;;;;2.47;1.35;;;;;;;-140.72;100.00;53044.28;5037289;28;20138;-71
2022/11/05 03:07:32;;;;;;;1.42;1.02;;;;;;;-140.72;100.00;52997.63;5048353;28;20363;-75
2022/11/05 03:10:25;;;;;;;3.70;0.80;;;;;;;-140.72;100.00;52995.59;4995589;28;20037;-71
2022/11/05 03:13:06;;;;;;;2.28;1.23;;;;;;;-140.72;100.00;53048.34;5038825;28;20028;-72
2022/11/05 03:15:49;;;;;;;1.02;0.70;;;;;;;-140.72;100.00;53032.13;5048455;28;20373;-74
2022/11/05 03:18:21;;;;;;;1.08;0.50;;;;;;;-140.72;100.00;53007.75;5049972;28;20040;-72
2022/11/05 03:21:15;;;;;;;1.38;0.75;;;;;;;-140.72;100.00;53019.94;5048814;28;20060;-69
2022/11/05 03:23:58;;;;;;;1.95;0.68;;;;;;;-140.72;100.00;53040.22;5048784;28;20020;-69
2022/11/05 03:26:32;;;;;;;1.73;0.85;;;;;;;-140.72;100.00;53011.81;5049487;28;20025;-71
2022/11/05 03:29:02;;;;;;;1.63;0.80;;;;;;;-140.72;100.00;52975.28;5048285;28;20029;-70
2022/11/05 03:31:29;;;;;;;1.35;0.88;;;;;;;-140.72;100.00;53005.72;5049698;28;20116;-70
2022/11/05 03:33:59;;;;;;;1.63;1.00;;;;;;;-140.72;100.00;52975.28;5037319;28;20020;-70
2022/11/05 03:36:33;;;;;;;3.80;1.15;;;;;;;-140.72;100.00;52955.00;5048218;28;20477;-71
2022/11/05 03:39:03;;;;;;;1.17;0.98;;;;;;;-140.72;100.00;53013.84;5048649;28;20087;-73
2022/11/05 03:41:33;;;;;;;1.92;0.93;;;;;;;-140.72;100.00;53003.69;5046643;28;20039;-70
2022/11/05 03:44:03;;;;;;;1.05;0.82;;;;;;;-140.72;100.00;52979.34;5045837;28;20175;-70
2022/11/05 03:46:36;;;;;;;2.60;1.05;;;;;;;-140.72;100.00;53015.88;5049157;28;20398;-69
2022/11/05 03:49:05;;;;;;;1.00;0.68;;;;;;;-140.72;100.00;52973.25;5048680;28;20041;-71
2022/11/05 03:51:52;;;;;;;3.10;1.20;;;;;;;-140.72;100.00;52991.53;5048722;28;20047;-71
2022/11/05 03:54:17;;;;;;;1.85;1.05;;;;;;;-140.72;100.00;53005.72;5049075;28;20032;-73
2022/11/05 03:57:05;;;;;;;0.70;0.50;;;;;;;-140.72;100.00;52965.16;5048004;28;20040;-70
2022/11/05 03:59:37;;;;;;;0.93;0.70;;;;;;;-140.72;100.00;52983.41;5049346;28;20028;-70
2022/11/05 04:02:02;;;;;;;1.35;0.80;;;;;;;-140.72;100.00;53034.16;5048628;28;20036;-71
2022/11/05 04:04:27;;;;;;;1.00;0.70;;;;;;;-140.72;100.00;53019.94;5048608;28;20036;-72
2022/11/05 04:15:05;;;;;;;2.00;1.02;;;;;;;-140.72;100.00;53015.88;5048912;28;20047;-74
2022/11/05 04:17:30;;;;;;;4.13;0.80;;;;;;;-140.72;100.00;53024.00;5048105;28;20017;-72
2022/11/05 04:25:26;;;;;;;4.35;1.23;;;;;;;-140.72;100.00;53030.09;5049264;28;20040;-74
2022/11/05 04:27:52;;;;;;;1.20;0.82;;;;;;;-140.72;100.00;52999.66;5052187;28;20021;-71
2022/11/05 04:30:18;;;;;;;2.60;1.20;;;;;;;-140.72;100.00;53026.03;5052300;28;20116;-70
2022/11/05 04:32:57;;;;;;;1.58;1.05;;;;;;;-140.72;100.00;53050.38;5050860;28;20025;-69
2022/11/05 04:35:23;;;;;;;1.03;0.80;;;;;;;-140.72;100.00;53084.88;5052314;28;20044;-72
2022/11/05 04:37:48;;;;;;;0.68;0.68;;;;;;;-140.72;100.00;53044.28;5051032;28;20021;-71
2022/11/05 04:40:14;;;;;;;1.67;0.85;;;;;;;-140.72;100.00;53050.38;5052008;28;20492;-71
2022/11/05 04:42:39;;;;;;;2.67;1.65;;;;;;;-140.72;100.00;53044.28;5051925;28;20558;-75
2022/11/05 04:45:04;;;;;;;2.72;1.63;;;;;;;-140.72;100.00;53040.22;5050228;28;20036;-72
2022/11/05 04:47:30;;;;;;;2.00;1.38;;;;;;;-140.72;100.00;53062.56;5051751;28;20029;-71
2022/11/05 04:49:55;;;;;;;3.75;1.30;;;;;;;-140.72;100.00;53056.47;5051160;28;20505;-71
2022/11/05 04:52:21;;;;;;;2.95;1.17;;;;;;;-140.72;100.00;53034.16;5051616;28;20417;-73
2022/11/05 04:54:46;;;;;;;3.53;1.05;;;;;;;-140.72;100.00;53028.06;5051338;28;20111;-70
2022/11/05 04:57:11;;;;;;;2.00;0.70;;;;;;;-140.72;100.00;53074.72;5051601;28;20029;-70
2022/11/05 04:59:37;;;;;;;1.58;0.73;;;;;;;-140.72;100.00;53052.41;5050699;28;20036;-71
2022/11/05 05:02:02;;;;;;;1.15;0.73;;;;;;;-140.72;100.00;53038.19;5050396;28;20044;-70
2022/11/05 05:04:27;;;;;;;1.63;1.02;;;;;;;-140.72;100.00;53048.34;5051390;28;20036;-73
2022/11/05 05:06:53;;;;;;;1.23;0.77;;;;;;;-140.72;100.00;53042.25;5050414;28;20052;-71
2022/11/05 05:09:18;;;;;;;1.23;0.70;;;;;;;-140.72;100.00;53068.66;5051427;28;20017;-71
2022/11/05 05:11:44;;;;;;;1.52;0.93;;;;;;;-140.72;100.00;53034.16;5050952;28;20025;-73
2022/11/05 05:14:09;;;;;;;1.90;1.00;;;;;;;-140.72;100.00;53038.19;5050674;28;20261;-72
2022/11/05 05:16:35;;;;;;;4.22;0.85;;;;;;;-140.72;100.00;53040.22;5051336;28;20111;-72
2022/11/05 05:19:00;;;;;;;3.30;1.00;;;;;;;-140.72;100.00;53015.88;5039496;28;20053;-75
2022/11/05 05:21:37;;;;;;;1.30;0.65;;;;;;;-140.72;100.00;52989.50;5051303;28;20028;-70
2022/11/05 05:24:14;;;;;;;3.33;0.77;;;;;;;-140.72;100.00;52993.56;5051197;28;20025;-71
2022/11/05 05:26:42;;;;;;;0.80;0.68;;;;;;;-140.72;100.00;53036.16;5051024;28;20085;-72
2022/11/05 05:29:08;;;;;;;0.98;0.80;;;;;;;-140.72;100.00;53026.03;5050046;28;20595;-71
2022/11/05 05:31:34;;;;;;;1.52;0.75;;;;;;;-140.72;100.00;53050.38;5050943;28;20083;-70
2022/11/05 05:33:59;;;;;;;3.25;0.95;;;;;;;-140.72;100.00;53032.13;5050500;28;20425;-70
2022/11/05 05:36:24;;;;;;;0.73;0.65;;;;;;;-140.72;100.00;53044.28;5027162;28;20049;-71
2022/11/05 05:38:50;;;;;;;2.17;1.20;;;;;;;-140.72;100.00;53019.94;5044954;28;20116;-72
2022/11/05 05:41:16;;;;;;;3.50;0.88;;;;;;;-140.72;100.00;53017.91;5049479;28;20029;-72
2022/11/05 05:43:41;;;;;;;2.33;1.30;;;;;;;-140.72;100.00;53028.06;5050741;28;20276;-71
2022/11/05 05:46:10;;;;;;;2.20;1.17;;;;;;;-140.72;100.00;53046.31;5050599;28;20045;-71
2022/11/05 05:48:35;;;;;;;6.72;1.70;;;;;;;-140.72;100.00;53021.97;5050151;28;20041;-71
2022/11/05 05:51:03;;;;;;;2.00;1.25;;;;;;;-140.72;100.00;52991.53;5050198;28;20025;-70
2022/11/05 05:53:30;;;;;;;3.42;2.30;;;;;;;-140.72;100.00;52989.50;5049743;28;20024;-70
2022/11/05 05:55:56;;;;;;;3.33;2.40;;;;;;;-140.72;100.00;53011.81;5050093;28;20021;-70
2022/11/05 05:58:23;;;;;;;3.13;2.30;;;;;;;-140.72;100.00;53028.06;5050502;28;20022;-71
2022/11/05 06:00:48;;;;;;;4.47;3.05;;;;;;;-140.72;100.00;53003.69;5050362;28;20436;-74
2022/11/05 06:03:14;;;;;;;6.20;3.30;;;;;;;-140.72;100.00;53034.16;5050530;28;20025;-70
2022/11/05 06:05:39;;;;;;;9.63;4.05;;;;;;;-140.72;100.00;53007.75;5050435;28;20081;-70
2022/11/05 06:08:05;;;;;;;5.40;3.60;;;;;;;-140.72;100.00;53015.88;5051007;28;20056;-74
2022/11/05 06:10:30;;;;;;;5.32;3.95;;;;;;;-140.72;100.00;52991.53;5049841;28;20021;-70
2022/11/05 06:12:58;;;;;;;6.03;3.95;;;;;;;-140.72;100.00;53042.25;5050033;28;20538;-72
2022/11/05 06:15:24;;;;;;;4.72;3.45;;;;;;;-140.72;100.00;53001.66;5050615;28;20039;-71
2022/11/05 06:17:50;;;;;;;5.75;4.15;;;;;;;-140.72;100.00;52997.63;5049677;28;20107;-73
2022/11/05 06:20:15;;;;;;;4.93;4.40;;;;;;;-140.72;100.00;53005.72;5050209;28;20082;-71
2022/11/05 06:22:40;;;;;;;5.63;4.10;;;;;;;-140.72;100.00;52997.63;5049510;28;20028;-71
2022/11/05 06:25:07;;;;;;;10.10;4.65;;;;;;;-140.72;100.00;53060.53;5048800;28;20031;-71
2022/11/05 06:27:32;;;;;;;6.57;4.60;;;;;;;-140.72;100.00;53060.53;5048614;28;20029;-72
2022/11/05 06:29:58;;;;;;;6.57;4.80;;;;;;;-140.72;100.00;53021.97;5048375;28;20033;-71
2022/11/05 06:32:23;;;;;;;7.03;4.35;;;;;;;-140.72;100.00;52999.66;5048242;28;20017;-73
2022/11/05 06:34:48;;;;;;;8.27;4.60;;;;;;;-140.72;100.00;53046.31;5048355;28;20463;-71
2022/11/05 06:37:14;;;;;;;9.50;4.55;;;;;;;-140.72;100.00;53068.66;5047769;28;20036;-75
2022/11/05 06:39:39;;;;;;;8.18;5.03;;;;;;;-140.72;100.00;53046.31;5044658;28;20021;-72
2022/11/05 06:42:05;;;;;;;5.15;4.35;;;;;;;-140.72;100.00;53054.44;5050093;28;20013;-72
2022/11/05 06:44:30;;;;;;;7.20;4.45;;;;;;;-140.72;100.00;53024.00;5052551;28;20082;-72
2022/11/05 06:46:56;;;;;;;6.20;4.05;;;;;;;-140.72;100.00;53009.78;5049761;28;20545;-72
2022/11/05 06:49:24;;;;;;;9.05;4.82;;;;;;;-140.72;100.00;53036.16;5049239;28;20083;-72
2022/11/05 06:51:50;;;;;;;6.35;4.25;;;;;;;-140.72;100.00;53026.03;5048808;28;20029;-71
2022/11/05 06:54:16;;;;;;;9.30;4.82;;;;;;;-140.72;100.00;53019.94;5049648;28;20052;-71
2022/11/05 06:56:41;;;;;;;6.47;4.88;;;;;;;-140.72;100.00;53036.16;5048437;28;20055;-71
2022/11/05 06:59:07;;;;;;;8.52;5.82;;;;;;;-140.72;100.00;53040.22;5049318;28;20033;-72
2022/11/05 07:01:34;;;;;;;6.90;4.60;;;;;;;-140.72;100.00;53007.75;5049726;28;20078;-72
2022/11/05 07:03:59;;;;;;;8.38;5.28;;;;;;;-140.72;100.00;53028.06;5048031;28;20120;-75
2022/11/05 07:06:26;;;;;;;6.95;4.45;;;;;;;-140.72;100.00;53040.22;5046826;28;20103;-72
2022/11/05 07:08:51;;;;;;;6.63;4.68;;;;;;;-140.72;100.00;52999.66;5047936;28;20108;-72
2022/11/05 07:11:16;;;;;;;7.55;5.60;;;;;;;-140.72;100.00;53028.06;5047571;28;20025;-72
2022/11/05 07:13:42;;;;;;;10.90;4.95;;;;;;;-140.72;100.00;53015.88;5036674;28;20024;-73
2022/11/05 07:16:07;;;;;;;9.77;4.82;;;;;;;-140.72;100.00;52987.47;5048440;28;20039;-71
2022/11/05 07:18:33;;;;;;;5.97;4.97;;;;;;;-140.72;100.00;53021.97;5048402;28;20055;-72
2022/11/05 07:20:59;;;;;;;7.03;4.90;;;;;;;-140.72;100.00;53032.13;5048813;28;20420;-72
2022/11/05 07:23:28;;;;;;;13.07;4.85;;;;;;;-140.72;100.00;52971.22;5046573;28;20132;-74
2022/11/05 07:25:53;;;;;;;9.73;5.05;;;;;;;-140.72;100.00;53015.88;5044683;28;20021;-73
2022/11/05 07:28:19;;;;;;;6.25;4.45;;;;;;;-140.72;100.00;53048.34;5047299;28;20094;-71
2022/11/05 07:30:44;;;;;;;8.63;4.85;;;;;;;-140.72;100.00;53044.28;5047319;28;20482;-71
2022/11/05 07:33:09;;;;;;;5.10;3.85;;;;;;;-140.72;100.00;52985.44;5048231;28;20017;-71
2022/11/05 07:35:35;;;;;;;8.93;5.38;;;;;;;-140.72;100.00;52995.59;5047162;28;20421;-72
2022/11/05 07:38:00;;;;;;;9.40;5.03;;;;;;;-140.72;100.00;53015.88;5047668;28;20104;-73
2022/11/05 07:40:28;;;;;;;8.80;5.55;;;;;;;-140.72;100.00;52991.53;5048040;28;20025;-71
2022/11/05 07:42:58;;;;;;;8.57;4.15;;;;;;;-140.72;100.00;53003.69;5046668;28;20057;-71
2022/11/05 07:45:25;;;;;;;8.18;5.00;;;;;;;-140.72;100.00;52995.59;5046436;28;20522;-72
2022/11/05 07:47:55;;;;;;;8.27;4.82;;;;;;;-140.72;100.00;53009.78;5047944;28;20045;-73
2022/11/05 07:50:23;;;;;;;8.77;4.85;;;;;;;-140.72;100.00;53013.84;5048709;28;20029;-73
2022/11/05 07:52:49;;;;;;;7.22;4.40;;;;;;;-140.72;100.00;52999.66;5049778;28;20055;-72
2022/11/05 07:55:15;;;;;;;6.55;4.68;;;;;;;-140.72;100.00;52973.25;5049459;28;20025;-73
2022/11/05 07:57:46;;;;;;;10.73;5.47;;;;;;;-140.72;100.00;53005.72;5047795;28;20061;-71
2022/11/05 08:00:14;;;;;;;6.75;4.60;;;;;;;-140.72;100.00;52975.28;5046813;28;20116;-74
2022/11/05 08:02:41;;;;;;;17.20;4.65;;;;;;;-140.72;100.00;52967.16;5050618;28;20041;-72
2022/11/05 08:05:07;;;;;;;7.60;4.82;;;;;;;-140.72;100.00;52995.59;5048536;28;20040;-71
2022/11/05 08:07:32;;;;;;;6.10;3.92;;;;;;;-140.72;100.00;52993.56;5050837;28;20196;-71
2022/11/05 08:09:57;;;;;;;6.97;4.38;;;;;;;-140.72;100.00;52997.63;5049912;28;20036;-74
2022/11/05 08:12:23;;;;;;;4.22;3.10;;;;;;;-140.72;100.00;52997.63;5050452;28;20021;-70
2022/11/05 08:14:50;;;;;;;7.43;3.63;;;;;;;-140.72;100.00;52983.41;5050347;28;20036;-73
2022/11/05 08:17:16;;;;;;;6.07;3.47;;;;;;;-140.72;100.00;52959.06;5050206;28;20029;-71
2022/11/05 08:19:41;;;;;;;5.18;3.08;;;;;;;-140.72;100.00;52983.41;5047429;28;20102;-75
2022/11/05 08:22:07;;;;;;;4.80;3.38;;;;;;;-140.72;100.00;52952.97;5050723;28;20028;-72
2022/11/05 08:24:32;;;;;;;4.97;3.55;;;;;;;-140.72;100.00;52936.72;5049281;28;20044;-72
2022/11/05 08:26:58;;;;;;;5.45;2.90;;;;;;;-140.72;100.00;52955.00;5051481;28;20111;-70
2022/11/05 08:29:23;;;;;;;4.07;2.90;;;;;;;-140.72;100.00;52981.38;5051452;28;20141;-71
2022/11/05 08:31:48;;;;;;;5.82;2.97;;;;;;;-140.72;100.00;52948.91;5048416;28;20025;-69
2022/11/05 08:34:14;;;;;;;7.82;3.00;;;;;;;-140.72;100.00;52955.00;5050981;28;20534;-70
2022/11/05 08:36:42;;;;;;;5.32;2.90;;;;;;;-140.72;100.00;53001.66;5050601;28;20051;-69
2022/11/05 08:39:08;;;;;;;6.82;2.33;;;;;;;-140.72;100.00;52959.06;5048366;28;20108;-71
2022/11/05 08:41:34;;;;;;;4.53;2.65;;;;;;;-140.72;100.00;52957.03;5049534;28;20040;-70
2022/11/05 08:43:59;;;;;;;4.65;2.15;;;;;;;-140.72;100.00;52955.00;5049213;28;20402;-69
2022/11/05 08:46:24;;;;;;;5.40;2.45;;;;;;;-140.72;100.00;52979.34;5049864;28;20110;-68
2022/11/05 08:48:50;;;;;;;4.93;2.25;;;;;;;-140.72;100.00;52981.38;5050013;28;20048;-71
2022/11/05 08:51:15;;;;;;;3.17;2.33;;;;;;;-140.72;100.00;52930.66;5049919;28;20033;-66
2022/11/05 08:53:40;;;;;;;6.45;2.55;;;;;;;-140.72;100.00;52952.97;5050221;28;20040;-70
2022/11/05 08:56:06;;;;;;;4.40;1.80;;;;;;;-140.72;100.00;52950.94;5050655;28;20513;-69
2022/11/05 08:58:32;;;;;;;3.47;1.75;;;;;;;-140.72;100.00;52924.56;5048285;28;20474;-68
2022/11/05 09:00:57;;;;;;;2.47;1.63;;;;;;;-140.72;100.00;52930.66;5047749;28;20063;-68
2022/11/05 09:03:22;;;;;;;3.05;2.00;;;;;;;-140.72;100.00;52926.59;5048327;28;20252;-68
2022/11/05 09:05:48;;;;;;;1.77;1.50;;;;;;;-140.72;100.00;52936.72;5047980;28;20025;-69
2022/11/05 09:08:16;;;;;;;5.45;1.63;;;;;;;-140.72;100.00;52936.72;5050283;28;20551;-68
2022/11/05 09:10:44;;;;;;;3.03;1.48;;;;;;;-140.72;100.00;52914.41;5049531;28;20070;-70
2022/11/05 09:13:10;;;;;;;4.00;1.63;;;;;;;-140.72;100.00;52922.53;5048334;28;20049;-69
2022/11/05 09:15:35;;;;;;;2.25;1.27;;;;;;;-140.72;100.00;52942.81;5049595;28;20128;-69
2022/11/05 09:18:04;;;;;;;3.67;1.30;;;;;;;-140.72;100.00;52877.88;5049269;28;20029;-68
2022/11/05 09:20:30;;;;;;;2.95;1.77;;;;;;;-140.72;100.00;52910.34;5049928;28;20390;-69
2022/11/05 09:22:55;;;;;;;2.58;1.10;;;;;;;-140.72;100.00;52886.00;5049340;28;20114;-68
2022/11/05 09:25:21;;;;;;;6.60;1.45;;;;;;;-140.72;100.00;52920.50;5049851;28;20409;-69
2022/11/05 09:27:46;;;;;;;2.63;1.67;;;;;;;-140.72;100.00;52942.81;5048774;28;20418;-68
2022/11/05 09:30:13;;;;;;;4.32;2.40;;;;;;;-140.72;100.00;52892.09;5049564;28;20036;-67
2022/11/05 09:32:38;;;;;;;3.08;1.42;;;;;;;-140.72;100.00;52936.72;5049115;28;20089;-69
2022/11/05 09:35:05;;;;;;;3.95;1.77;;;;;;;-140.72;100.00;52900.19;5049358;28;20115;-69
2022/11/05 09:37:30;;;;;;;2.25;1.25;;;;;;;-140.72;100.00;52936.72;5050146;28;20039;-69
2022/11/05 09:39:55;;;;;;;2.03;1.20;;;;;;;-140.72;100.00;52888.03;5047025;28;20708;-69
2022/11/05 09:42:26;;;;;;;2.15;1.25;;;;;;;-140.72;100.00;52877.88;5048098;28;20057;-68
2022/11/05 09:44:58;;;;;;;3.90;1.20;;;;;;;-140.72;100.00;52902.22;5049253;28;20035;-67
2022/11/05 09:47:29;;;;;;;2.15;1.13;;;;;;;-140.72;100.00;52900.19;5050024;28;20085;-69
2022/11/05 09:49:58;;;;;;;2.63;1.10;;;;;;;-140.72;100.00;52912.38;5047813;28;20110;-70
2022/11/05 09:52:28;;;;;;;1.70;1.00;;;;;;;-140.72;100.00;52918.47;5031268;28;20124;-68
2022/11/05 09:54:55;;;;;;;2.78;1.38;;;;;;;-140.72;100.00;52890.06;5048370;28;20040;-69
2022/11/05 09:57:28;;;;;;;1.85;1.00;;;;;;;-140.72;100.00;52900.19;5048643;28;20111;-69
2022/11/05 10:00:00;;;;;;;3.15;1.20;;;;;;;-140.72;100.00;52910.34;5049119;28;20029;-69
2022/11/05 10:02:32;;;;;;;2.72;1.23;;;;;;;-140.72;100.00;52896.16;5046895;28;20164;-70
2022/11/05 10:05:07;;;;;;;2.08;1.20;;;;;;;-140.72;100.00;52875.84;5049443;28;20407;-70
2022/11/05 10:07:46;;;;;;;2.92;1.33;;;;;;;-140.72;100.00;52879.91;5049498;28;20029;-69
2022/11/05 10:10:32;;;;;;;4.47;0.80;;;;;;;-140.72;100.00;52883.97;5047616;28;20047;-69
2022/11/05 10:13:03;;;;;;;3.17;1.63;;;;;;;-140.72;100.00;52857.59;5048740;28;20166;-68
2022/11/05 10:15:39;;;;;;;3.08;1.52;;;;;;;-140.72;100.00;52865.69;5048746;28;20021;-69
2022/11/05 10:18:18;;;;;;;3.83;1.75;;;;;;;-140.72;100.00;52861.66;5047550;28;20035;-69
2022/11/05 10:20:44;;;;;;;3.38;1.90;;;;;;;-140.72;100.00;52906.28;5047540;28;20025;-69
2022/11/05 10:23:12;;;;;;;4.07;1.85;;;;;;;-140.72;100.00;52898.16;5047808;28;20102;-68
2022/11/05 10:25:42;;;;;;;2.67;1.38;;;;;;;-140.72;100.00;52894.13;5048785;28;20032;-68
2022/11/05 10:28:10;;;;;;;;;;;;;;;-140.72;100.00;52847.44;5048678;28;21086;-69
2022/11/05 10:30:36;;;;;;;3.72;1.50;;;;;;;-140.72;100.00;52898.16;5048771;28;19920;-69
2022/11/05 10:33:04;;;;;;;1.98;1.27;;;;;;;-140.72;100.00;52857.59;5048799;28;20025;-69
2022/11/05 10:35:34;;;;;;;3.10;1.67;;;;;;;-140.72;100.00;52879.91;5048776;28;20142;-69
2022/11/05 10:38:02;;;;;;;5.68;1.48;;;;;;;-140.72;100.00;52883.97;5048159;28;20061;-70
2022/11/05 10:40:49;;;;;;;3.78;1.45;;;;;;;-140.72;100.00;52910.34;5048764;28;20040;-69
2022/11/05 10:43:28;;;;;;;2.65;1.13;;;;;;;-140.72;100.00;52845.41;5053343;28;20112;-69
2022/11/05 10:46:13;;;;;;;2.78;1.45;;;;;;;-140.72;100.00;52894.13;5048291;28;20029;-69
2022/11/05 10:48:44;;;;;;;4.75;1.90;;;;;;;-140.72;100.00;52875.84;5046456;28;20052;-68
2022/11/05 10:51:10;;;;;;;2.13;1.20;;;;;;;-140.72;100.00;52873.81;5047841;28;20095;-69
2022/11/05 10:53:37;;;;;;;2.72;1.30;;;;;;;-140.72;100.00;52865.69;5046176;28;20092;-69
2022/11/05 10:56:23;;;;;;;3.80;1.55;;;;;;;-140.72;100.00;52914.41;5048132;28;20041;-68
2022/11/05 10:58:54;;;;;;;3.10;1.42;;;;;;;-140.72;100.00;52926.59;5046434;28;20112;-68
2022/11/05 11:01:21;;;;;;;2.25;1.20;;;;;;;-140.72;100.00;52849.47;5045679;28;20104;-69
2022/11/05 11:03:51;;;;;;;5.00;1.70;;;;;;;-140.72;100.00;52890.06;5047613;28;20028;-69
2022/11/05 11:06:27;;;;;;;4.75;1.38;;;;;;;-140.72;100.00;52855.56;5046043;28;20082;-67
2022/11/05 11:08:56;;;;;;;3.40;1.20;;;;;;;-140.72;100.00;52904.25;5046659;28;20033;-68
2022/11/05 11:11:41;;;;;;;2.70;1.05;;;;;;;-140.72;100.00;52867.72;5043913;28;20493;-69
2022/11/05 11:14:12;;;;;;;3.95;1.52;;;;;;;-140.72;100.00;52819.03;5045609;28;20033;-70
2022/11/05 11:16:46;;;;;;;2.08;0.70;;;;;;;-140.72;100.00;52833.22;5044856;28;20052;-70
2022/11/05 11:19:23;;;;;;;2.22;1.08;;;;;;;-140.72;100.00;52892.09;5046397;28;20029;-69
2022/11/05 11:22:04;;;;;;;1.80;1.10;;;;;;;-140.72;100.00;52851.50;5044330;28;20039;-69
2022/11/05 11:24:47;;;;;;;3.15;0.98;;;;;;;-140.72;100.00;52888.03;5046855;28;20363;-68
2022/11/05 11:27:32;;;;;;;3.25;1.15;;;;;;;-140.72;100.00;52835.25;5045308;28;20082;-68
2022/11/05 11:30:00;;;;;;;2.50;1.23;;;;;;;-140.72;100.00;52875.84;5044351;28;20037;-69
2022/11/05 11:32:34;;;;;;;2.53;1.02;;;;;;;-140.72;100.00;52855.56;5044479;28;20032;-68
2022/11/05 11:35:00;;;;;;;1.85;1.05;;;;;;;-140.72;100.00;52855.56;5046908;28;20025;-64
2022/11/05 11:37:30;;;;;;;3.22;1.15;;;;;;;-140.72;100.00;52827.16;5047855;28;20386;-69
2022/11/05 11:40:03;;;;;;;1.98;1.05;;;;;;;-140.72;100.00;52841.34;5044284;28;20029;-68
2022/11/05 11:42:32;;;;;;;4.35;1.38;;;;;;;-140.72;100.00;52802.78;5045218;28;20118;-69
2022/11/05 11:45:05;;;;;;;3.42;1.00;;;;;;;-140.72;100.00;52869.75;5047295;28;20033;-68
2022/11/05 11:47:32;;;;;;;3.28;1.08;;;;;;;-140.72;100.00;52843.38;5047456;28;20032;-69
2022/11/05 11:49:59;;;;;;;1.90;1.13;;;;;;;-140.72;100.00;52800.75;5047718;28;20173;-70
2022/11/05 11:52:35;;;;;;;3.53;1.00;;;;;;;-140.72;100.00;52831.19;5048189;28;20029;-70
2022/11/05 11:55:18;;;;;;;4.68;1.20;;;;;;;-140.72;100.00;52827.16;5046890;28;20493;-70
2022/11/05 11:57:49;;;;;;;3.33;1.55;;;;;;;-140.72;100.00;52823.09;5048204;28;20025;-70
2022/11/05 12:00:16;;;;;;;1.98;1.10;;;;;;;-140.72;100.00;52869.75;5048199;28;20517;-69